sensor_id;sensor_type;location;lat;lon;timestamp;temperature;humidity
39503;DHT22;26970;49.900;10.774;2022-07-21T00:02:14;21.60;99.90
39503;DHT22;26970;49.900;10.774;2022-07-21T00:04:40;21.70;99.90
39503;DHT22;26970;49.900;10.774;2022-07-21T00:07:05;21.70;99.90
39503;DHT22;26970;49.900;10.774;2022-07-21T00:09:31;22.00;99.90
39503;DHT22;26970;49.900;10.774;2022-07-21T00:11:56;21.80;99.90
39503;DHT22;26970;49.900;10.774;2022-07-21T00:14:22;21.70;99.90
39503;DHT22;26970;49.900;10.774;2022-07-21T00:16:47;21.70;99.90
39503;DHT22;26970;49.900;10.774;2022-07-21T00:19:13;21.60;99.90
39503;DHT22;26970;49.900;10.774;2022-07-21T00:21:38;21.40;99.90
39503;DHT22;26970;49.900;10.774;2022-07-21T00:24:04;21.40;99.90
39503;DHT22;26970;49.900;10.774;2022-07-21T00:26:29;21.30;99.90
39503;DHT22;26970;49.900;10.774;2022-07-21T00:28:55;21.20;99.90
39503;DHT22;26970;49.900;10.774;2022-07-21T00:31:20;21.10;99.90
39503;DHT22;26970;49.900;10.774;2022-07-21T00:33:46;21.10;99.90
39503;DHT22;26970;49.900;10.774;2022-07-21T00:36:11;21.00;99.90
39503;DHT22;26970;49.900;10.774;2022-07-21T00:38:37;21.00;99.90
39503;DHT22;26970;49.900;10.774;2022-07-21T00:41:02;21.00;99.90
39503;DHT22;26970;49.900;10.774;2022-07-21T00:43:28;21.00;99.90
39503;DHT22;26970;49.900;10.774;2022-07-21T00:45:54;21.00;99.90
39503;DHT22;26970;49.900;10.774;2022-07-21T00:48:21;21.00;99.90
39503;DHT22;26970;49.900;10.774;2022-07-21T00:50:47;21.00;99.90
39503;DHT22;26970;49.900;10.774;2022-07-21T00:53:13;21.00;99.90
39503;DHT22;26970;49.900;10.774;2022-07-21T00:55:42;21.00;99.90
39503;DHT22;26970;49.900;10.774;2022-07-21T00:58:08;21.00;99.90
39503;DHT22;26970;49.900;10.774;2022-07-21T01:00:34;21.00;99.90
39503;DHT22;26970;49.900;10.774;2022-07-21T01:02:59;21.00;99.90
39503;DHT22;26970;49.900;10.774;2022-07-21T01:05:25;21.00;99.90
39503;DHT22;26970;49.900;10.774;2022-07-21T01:07:52;21.10;99.90
39503;DHT22;26970;49.900;10.774;2022-07-21T01:10:20;21.40;99.90
39503;DHT22;26970;49.900;10.774;2022-07-21T01:12:46;21.40;99.90
39503;DHT22;26970;49.900;10.774;2022-07-21T01:15:13;21.30;99.90
39503;DHT22;26970;49.900;10.774;2022-07-21T01:17:41;21.20;99.90
39503;DHT22;26970;49.900;10.774;2022-07-21T01:20:14;21.20;99.90
39503;DHT22;26970;49.900;10.774;2022-07-21T01:22:41;21.20;99.90
39503;DHT22;26970;49.900;10.774;2022-07-21T01:25:08;21.10;99.90
39503;DHT22;26970;49.900;10.774;2022-07-21T01:27:34;21.10;99.90
39503;DHT22;26970;49.900;10.774;2022-07-21T01:30:00;21.00;99.90
39503;DHT22;26970;49.900;10.774;2022-07-21T01:32:26;20.90;99.90
39503;DHT22;26970;49.900;10.774;2022-07-21T01:34:52;20.90;99.90
39503;DHT22;26970;49.900;10.774;2022-07-21T01:37:27;20.90;99.90
39503;DHT22;26970;49.900;10.774;2022-07-21T01:39:54;20.70;99.90
39503;DHT22;26970;49.900;10.774;2022-07-21T01:42:39;20.60;99.90
39503;DHT22;26970;49.900;10.774;2022-07-21T01:45:06;20.50;99.90
39503;DHT22;26970;49.900;10.774;2022-07-21T01:47:32;20.40;99.90
39503;DHT22;26970;49.900;10.774;2022-07-21T01:49:58;20.30;99.90
39503;DHT22;26970;49.900;10.774;2022-07-21T01:52:23;20.30;99.90
39503;DHT22;26970;49.900;10.774;2022-07-21T01:54:49;20.20;99.90
39503;DHT22;26970;49.900;10.774;2022-07-21T01:57:15;20.70;99.90
39503;DHT22;26970;49.900;10.774;2022-07-21T01:59:41;20.70;99.90
39503;DHT22;26970;49.900;10.774;2022-07-21T02:02:07;20.70;99.90
39503;DHT22;26970;49.900;10.774;2022-07-21T02:04:32;20.60;99.90
39503;DHT22;26970;49.900;10.774;2022-07-21T02:07:00;20.50;99.90
39503;DHT22;26970;49.900;10.774;2022-07-21T02:09:26;20.50;99.90
39503;DHT22;26970;49.900;10.774;2022-07-21T02:11:51;20.70;99.90
39503;DHT22;26970;49.900;10.774;2022-07-21T02:14:17;20.60;99.90
39503;DHT22;26970;49.900;10.774;2022-07-21T02:16:42;20.60;99.90
39503;DHT22;26970;49.900;10.774;2022-07-21T02:19:08;20.50;99.90
39503;DHT22;26970;49.900;10.774;2022-07-21T02:21:34;20.40;99.90
39503;DHT22;26970;49.900;10.774;2022-07-21T02:23:59;20.70;99.90
39503;DHT22;26970;49.900;10.774;2022-07-21T02:26:25;20.60;99.90
39503;DHT22;26970;49.900;10.774;2022-07-21T02:28:50;20.50;99.90
39503;DHT22;26970;49.900;10.774;2022-07-21T02:31:16;20.50;99.90
39503;DHT22;26970;49.900;10.774;2022-07-21T02:33:41;20.50;99.90
39503;DHT22;26970;49.900;10.774;2022-07-21T02:36:07;20.40;99.90
39503;DHT22;26970;49.900;10.774;2022-07-21T02:38:33;20.30;99.90
39503;DHT22;26970;49.900;10.774;2022-07-21T02:40:58;20.20;99.90
39503;DHT22;26970;49.900;10.774;2022-07-21T02:43:24;20.20;99.90
39503;DHT22;26970;49.900;10.774;2022-07-21T02:45:50;20.10;99.90
39503;DHT22;26970;49.900;10.774;2022-07-21T02:48:15;20.10;99.90
39503;DHT22;26970;49.900;10.774;2022-07-21T02:50:42;20.00;99.90
39503;DHT22;26970;49.900;10.774;2022-07-21T02:53:15;19.80;99.90
39503;DHT22;26970;49.900;10.774;2022-07-21T02:55:46;19.80;99.90
39503;DHT22;26970;49.900;10.774;2022-07-21T02:58:16;19.90;99.90
39503;DHT22;26970;49.900;10.774;2022-07-21T03:00:51;19.90;99.90
39503;DHT22;26970;49.900;10.774;2022-07-21T03:03:18;20.30;99.90
39503;DHT22;26970;49.900;10.774;2022-07-21T03:05:43;20.10;99.90
39503;DHT22;26970;49.900;10.774;2022-07-21T03:08:10;19.90;99.90
39503;DHT22;26970;49.900;10.774;2022-07-21T03:10:36;20.00;99.90
39503;DHT22;26970;49.900;10.774;2022-07-21T03:13:02;19.90;99.90
39503;DHT22;26970;49.900;10.774;2022-07-21T03:15:28;19.80;99.90
39503;DHT22;26970;49.900;10.774;2022-07-21T03:17:55;20.30;99.90
39503;DHT22;26970;49.900;10.774;2022-07-21T03:20:25;20.50;99.90
39503;DHT22;26970;49.900;10.774;2022-07-21T03:22:51;20.30;99.90
39503;DHT22;26970;49.900;10.774;2022-07-21T03:25:17;20.00;99.90
39503;DHT22;26970;49.900;10.774;2022-07-21T03:27:44;19.90;99.90
39503;DHT22;26970;49.900;10.774;2022-07-21T03:30:09;19.80;99.90
39503;DHT22;26970;49.900;10.774;2022-07-21T03:32:36;19.80;99.90
39503;DHT22;26970;49.900;10.774;2022-07-21T03:35:02;19.70;99.90
39503;DHT22;26970;49.900;10.774;2022-07-21T03:37:28;19.70;99.90
39503;DHT22;26970;49.900;10.774;2022-07-21T03:39:53;19.70;99.90
39503;DHT22;26970;49.900;10.774;2022-07-21T03:42:19;19.80;99.90
39503;DHT22;26970;49.900;10.774;2022-07-21T03:44:45;19.80;99.90
39503;DHT22;26970;49.900;10.774;2022-07-21T03:47:10;19.80;99.90
39503;DHT22;26970;49.900;10.774;2022-07-21T03:49:36;19.80;99.90
39503;DHT22;26970;49.900;10.774;2022-07-21T03:52:01;19.80;99.90
39503;DHT22;26970;49.900;10.774;2022-07-21T03:54:27;19.90;99.90
39503;DHT22;26970;49.900;10.774;2022-07-21T03:56:53;20.30;99.90
39503;DHT22;26970;49.900;10.774;2022-07-21T03:59:18;20.20;99.90
39503;DHT22;26970;49.900;10.774;2022-07-21T04:01:44;20.10;99.90
39503;DHT22;26970;49.900;10.774;2022-07-21T04:04:10;20.10;99.90
39503;DHT22;26970;49.900;10.774;2022-07-21T04:06:35;19.90;99.90
39503;DHT22;26970;49.900;10.774;2022-07-21T04:09:01;19.80;99.90
39503;DHT22;26970;49.900;10.774;2022-07-21T04:11:26;19.80;99.90
39503;DHT22;26970;49.900;10.774;2022-07-21T04:13:52;19.70;99.90
39503;DHT22;26970;49.900;10.774;2022-07-21T04:16:17;19.70;99.90
39503;DHT22;26970;49.900;10.774;2022-07-21T04:18:43;19.70;99.90
39503;DHT22;26970;49.900;10.774;2022-07-21T04:21:09;19.70;99.90
39503;DHT22;26970;49.900;10.774;2022-07-21T04:23:34;19.70;99.90
39503;DHT22;26970;49.900;10.774;2022-07-21T04:26:00;19.80;99.90
39503;DHT22;26970;49.900;10.774;2022-07-21T04:28:25;19.70;99.90
39503;DHT22;26970;49.900;10.774;2022-07-21T04:30:51;19.70;99.90
39503;DHT22;26970;49.900;10.774;2022-07-21T04:33:16;19.70;99.90
39503;DHT22;26970;49.900;10.774;2022-07-21T04:35:42;19.80;99.90
39503;DHT22;26970;49.900;10.774;2022-07-21T04:38:09;19.90;99.90
39503;DHT22;26970;49.900;10.774;2022-07-21T04:40:35;19.90;99.90
39503;DHT22;26970;49.900;10.774;2022-07-21T04:43:01;19.80;99.90
39503;DHT22;26970;49.900;10.774;2022-07-21T04:45:26;19.70;99.90
39503;DHT22;26970;49.900;10.774;2022-07-21T04:47:54;19.70;99.90
39503;DHT22;26970;49.900;10.774;2022-07-21T04:50:22;19.70;99.90
39503;DHT22;26970;49.900;10.774;2022-07-21T04:52:47;19.70;99.90
39503;DHT22;26970;49.900;10.774;2022-07-21T04:55:13;19.60;99.90
39503;DHT22;26970;49.900;10.774;2022-07-21T04:57:41;19.60;99.90
39503;DHT22;26970;49.900;10.774;2022-07-21T05:00:09;19.60;99.90
39503;DHT22;26970;49.900;10.774;2022-07-21T05:02:35;19.60;99.90
39503;DHT22;26970;49.900;10.774;2022-07-21T05:05:00;19.50;99.90
39503;DHT22;26970;49.900;10.774;2022-07-21T05:07:27;19.40;99.90
39503;DHT22;26970;49.900;10.774;2022-07-21T05:09:52;19.50;99.90
39503;DHT22;26970;49.900;10.774;2022-07-21T05:12:18;19.50;99.90
39503;DHT22;26970;49.900;10.774;2022-07-21T05:14:44;19.50;99.90
39503;DHT22;26970;49.900;10.774;2022-07-21T05:17:09;19.50;99.90
39503;DHT22;26970;49.900;10.774;2022-07-21T05:19:35;19.50;99.90
39503;DHT22;26970;49.900;10.774;2022-07-21T05:22:00;19.40;99.90
39503;DHT22;26970;49.900;10.774;2022-07-21T05:24:26;19.50;99.90
39503;DHT22;26970;49.900;10.774;2022-07-21T05:26:51;19.50;99.90
39503;DHT22;26970;49.900;10.774;2022-07-21T05:29:17;19.50;99.90
39503;DHT22;26970;49.900;10.774;2022-07-21T05:31:42;19.50;99.90
39503;DHT22;26970;49.900;10.774;2022-07-21T05:34:08;19.70;99.90
39503;DHT22;26970;49.900;10.774;2022-07-21T05:36:33;19.70;99.90
39503;DHT22;26970;49.900;10.774;2022-07-21T05:38:59;19.70;99.90
39503;DHT22;26970;49.900;10.774;2022-07-21T05:41:24;19.70;99.90
39503;DHT22;26970;49.900;10.774;2022-07-21T05:43:50;19.80;99.90
39503;DHT22;26970;49.900;10.774;2022-07-21T05:46:16;19.80;99.90
39503;DHT22;26970;49.900;10.774;2022-07-21T05:48:41;19.80;99.90
39503;DHT22;26970;49.900;10.774;2022-07-21T05:51:07;19.90;99.90
39503;DHT22;26970;49.900;10.774;2022-07-21T05:53:32;19.90;99.90
39503;DHT22;26970;49.900;10.774;2022-07-21T05:55:58;20.00;99.90
39503;DHT22;26970;49.900;10.774;2022-07-21T05:58:24;20.00;99.90
39503;DHT22;26970;49.900;10.774;2022-07-21T06:00:53;19.90;99.90
39503;DHT22;26970;49.900;10.774;2022-07-21T06:03:36;19.90;99.90
39503;DHT22;26970;49.900;10.774;2022-07-21T06:06:02;20.20;99.90
39503;DHT22;26970;49.900;10.774;2022-07-21T06:08:27;20.40;99.90
39503;DHT22;26970;49.900;10.774;2022-07-21T06:10:53;20.60;99.90
39503;DHT22;26970;49.900;10.774;2022-07-21T06:13:18;20.80;99.90
39503;DHT22;26970;49.900;10.774;2022-07-21T06:15:44;21.10;99.90
39503;DHT22;26970;49.900;10.774;2022-07-21T06:18:09;21.30;99.90
39503;DHT22;26970;49.900;10.774;2022-07-21T06:20:35;21.60;99.90
39503;DHT22;26970;49.900;10.774;2022-07-21T06:23:01;21.90;99.90
39503;DHT22;26970;49.900;10.774;2022-07-21T06:25:26;22.10;99.90
39503;DHT22;26970;49.900;10.774;2022-07-21T06:27:52;22.10;99.90
39503;DHT22;26970;49.900;10.774;2022-07-21T06:30:18;22.40;99.90
39503;DHT22;26970;49.900;10.774;2022-07-21T06:32:43;22.80;99.90
39503;DHT22;26970;49.900;10.774;2022-07-21T06:35:09;22.90;99.90
39503;DHT22;26970;49.900;10.774;2022-07-21T06:37:35;22.70;99.90
39503;DHT22;26970;49.900;10.774;2022-07-21T06:40:01;22.60;99.90
39503;DHT22;26970;49.900;10.774;2022-07-21T06:42:26;22.50;99.90
39503;DHT22;26970;49.900;10.774;2022-07-21T06:44:52;22.20;99.90
39503;DHT22;26970;49.900;10.774;2022-07-21T06:47:17;22.10;99.90
39503;DHT22;26970;49.900;10.774;2022-07-21T06:49:43;22.20;99.90
39503;DHT22;26970;49.900;10.774;2022-07-21T06:52:08;22.10;99.90
39503;DHT22;26970;49.900;10.774;2022-07-21T06:54:34;22.10;99.90
39503;DHT22;26970;49.900;10.774;2022-07-21T06:56:59;22.10;99.90
39503;DHT22;26970;49.900;10.774;2022-07-21T06:59:25;22.00;99.90
39503;DHT22;26970;49.900;10.774;2022-07-21T07:01:51;22.10;99.90
39503;DHT22;26970;49.900;10.774;2022-07-21T07:04:16;22.20;99.90
39503;DHT22;26970;49.900;10.774;2022-07-21T07:06:42;22.20;99.90
39503;DHT22;26970;49.900;10.774;2022-07-21T07:09:07;22.10;99.90
39503;DHT22;26970;49.900;10.774;2022-07-21T07:11:33;22.00;99.90
39503;DHT22;26970;49.900;10.774;2022-07-21T07:14:00;22.20;99.90
39503;DHT22;26970;49.900;10.774;2022-07-21T07:16:25;22.20;99.90
39503;DHT22;26970;49.900;10.774;2022-07-21T07:18:51;22.30;99.90
39503;DHT22;26970;49.900;10.774;2022-07-21T07:21:16;22.30;99.90
39503;DHT22;26970;49.900;10.774;2022-07-21T07:23:42;22.40;99.90
39503;DHT22;26970;49.900;10.774;2022-07-21T07:26:08;22.40;99.90
39503;DHT22;26970;49.900;10.774;2022-07-21T07:28:34;22.50;99.90
39503;DHT22;26970;49.900;10.774;2022-07-21T07:31:00;22.70;99.90
39503;DHT22;26970;49.900;10.774;2022-07-21T07:33:25;22.70;99.90
39503;DHT22;26970;49.900;10.774;2022-07-21T07:35:52;22.90;99.90
39503;DHT22;26970;49.900;10.774;2022-07-21T07:38:18;23.00;99.90
39503;DHT22;26970;49.900;10.774;2022-07-21T07:40:44;22.90;99.90
39503;DHT22;26970;49.900;10.774;2022-07-21T07:43:09;23.00;99.90
39503;DHT22;26970;49.900;10.774;2022-07-21T07:45:36;23.40;99.90
39503;DHT22;26970;49.900;10.774;2022-07-21T07:48:01;23.60;99.90
39503;DHT22;26970;49.900;10.774;2022-07-21T07:50:27;23.70;99.90
39503;DHT22;26970;49.900;10.774;2022-07-21T07:52:54;23.70;99.90
39503;DHT22;26970;49.900;10.774;2022-07-21T07:55:19;23.70;99.90
39503;DHT22;26970;49.900;10.774;2022-07-21T07:57:45;23.50;99.90
39503;DHT22;26970;49.900;10.774;2022-07-21T08:00:14;23.50;99.90
39503;DHT22;26970;49.900;10.774;2022-07-21T08:02:40;23.70;99.90
39503;DHT22;26970;49.900;10.774;2022-07-21T08:05:06;24.00;99.90
39503;DHT22;26970;49.900;10.774;2022-07-21T08:07:34;24.30;99.90
39503;DHT22;26970;49.900;10.774;2022-07-21T08:09:59;24.30;99.90
39503;DHT22;26970;49.900;10.774;2022-07-21T08:12:25;24.00;99.90
39503;DHT22;26970;49.900;10.774;2022-07-21T08:14:51;24.10;99.90
39503;DHT22;26970;49.900;10.774;2022-07-21T08:17:16;24.30;99.90
39503;DHT22;26970;49.900;10.774;2022-07-21T08:19:43;24.10;99.90
39503;DHT22;26970;49.900;10.774;2022-07-21T08:22:08;24.10;99.90
39503;DHT22;26970;49.900;10.774;2022-07-21T08:24:34;23.90;99.90
39503;DHT22;26970;49.900;10.774;2022-07-21T08:27:00;23.80;99.90
39503;DHT22;26970;49.900;10.774;2022-07-21T08:29:26;23.90;99.90
39503;DHT22;26970;49.900;10.774;2022-07-21T08:31:51;24.10;99.90
39503;DHT22;26970;49.900;10.774;2022-07-21T08:34:17;24.30;99.90
39503;DHT22;26970;49.900;10.774;2022-07-21T08:36:42;24.20;99.90
39503;DHT22;26970;49.900;10.774;2022-07-21T08:39:08;24.20;99.90
39503;DHT22;26970;49.900;10.774;2022-07-21T08:41:35;24.10;99.90
39503;DHT22;26970;49.900;10.774;2022-07-21T08:44:01;24.20;99.90
39503;DHT22;26970;49.900;10.774;2022-07-21T08:46:28;24.40;99.90
39503;DHT22;26970;49.900;10.774;2022-07-21T08:48:54;24.40;99.90
39503;DHT22;26970;49.900;10.774;2022-07-21T08:51:19;24.50;99.90
39503;DHT22;26970;49.900;10.774;2022-07-21T08:53:45;24.70;99.90
39503;DHT22;26970;49.900;10.774;2022-07-21T08:56:11;25.10;99.90
39503;DHT22;26970;49.900;10.774;2022-07-21T08:58:37;25.20;99.90
39503;DHT22;26970;49.900;10.774;2022-07-21T09:01:03;25.50;99.90
39503;DHT22;26970;49.900;10.774;2022-07-21T09:03:29;25.50;99.90
39503;DHT22;26970;49.900;10.774;2022-07-21T09:06:09;25.50;99.90
39503;DHT22;26970;49.900;10.774;2022-07-21T09:08:48;25.40;99.90
39503;DHT22;26970;49.900;10.774;2022-07-21T09:11:26;25.80;99.90
39503;DHT22;26970;49.900;10.774;2022-07-21T09:14:10;26.10;99.90
39503;DHT22;26970;49.900;10.774;2022-07-21T09:16:48;26.20;99.90
39503;DHT22;26970;49.900;10.774;2022-07-21T09:19:28;26.30;99.90
39503;DHT22;26970;49.900;10.774;2022-07-21T09:21:58;26.20;99.90
39503;DHT22;26970;49.900;10.774;2022-07-21T09:24:26;26.10;99.90
39503;DHT22;26970;49.900;10.774;2022-07-21T09:32:15;25.50;99.90
39503;DHT22;26970;49.900;10.774;2022-07-21T09:34:41;25.40;99.90
39503;DHT22;26970;49.900;10.774;2022-07-21T09:37:08;25.40;99.90
39503;DHT22;26970;49.900;10.774;2022-07-21T09:40:02;25.40;99.90
39503;DHT22;26970;49.900;10.774;2022-07-21T09:42:42;25.70;99.90
39503;DHT22;26970;49.900;10.774;2022-07-21T09:45:11;26.10;99.90
39503;DHT22;26970;49.900;10.774;2022-07-21T09:47:38;26.40;99.90
39503;DHT22;26970;49.900;10.774;2022-07-21T09:50:06;26.50;99.90
39503;DHT22;26970;49.900;10.774;2022-07-21T09:52:34;26.90;99.90
39503;DHT22;26970;49.900;10.774;2022-07-21T09:55:06;27.00;99.90
39503;DHT22;26970;49.900;10.774;2022-07-21T09:57:33;27.10;99.90
39503;DHT22;26970;49.900;10.774;2022-07-21T10:00:00;27.20;99.90
39503;DHT22;26970;49.900;10.774;2022-07-21T10:02:28;27.30;99.90
39503;DHT22;26970;49.900;10.774;2022-07-21T10:05:19;27.40;99.90
39503;DHT22;26970;49.900;10.774;2022-07-21T10:07:47;27.30;99.90
39503;DHT22;26970;49.900;10.774;2022-07-21T10:10:14;27.00;99.90
39503;DHT22;26970;49.900;10.774;2022-07-21T10:12:40;26.50;99.90
39503;DHT22;26970;49.900;10.774;2022-07-21T10:15:06;26.50;99.90
39503;DHT22;26970;49.900;10.774;2022-07-21T10:17:32;26.30;99.90
39503;DHT22;26970;49.900;10.774;2022-07-21T10:25:19;26.10;99.90
39503;DHT22;26970;49.900;10.774;2022-07-21T10:30:46;25.80;99.90
39503;DHT22;26970;49.900;10.774;2022-07-21T10:33:18;25.60;99.90
39503;DHT22;26970;49.900;10.774;2022-07-21T10:35:49;25.60;99.90
39503;DHT22;26970;49.900;10.774;2022-07-21T10:38:41;25.40;99.90
39503;DHT22;26970;49.900;10.774;2022-07-21T10:41:06;25.10;99.90
39503;DHT22;26970;49.900;10.774;2022-07-21T10:43:37;25.00;99.90
39503;DHT22;26970;49.900;10.774;2022-07-21T10:46:03;24.90;99.90
39503;DHT22;26970;49.900;10.774;2022-07-21T10:48:49;24.80;99.90
39503;DHT22;26970;49.900;10.774;2022-07-21T10:51:16;24.70;99.90
39503;DHT22;26970;49.900;10.774;2022-07-21T10:53:42;24.50;99.90
39503;DHT22;26970;49.900;10.774;2022-07-21T10:56:28;24.60;99.90
39503;DHT22;26970;49.900;10.774;2022-07-21T10:58:54;25.40;99.90
39503;DHT22;26970;49.900;10.774;2022-07-21T11:01:22;26.00;99.90
39503;DHT22;26970;49.900;10.774;2022-07-21T11:06:34;26.80;99.70
39503;DHT22;26970;49.900;10.774;2022-07-21T11:11:56;26.50;99.70
39503;DHT22;26970;49.900;10.774;2022-07-21T11:14:41;26.20;99.50
39503;DHT22;26970;49.900;10.774;2022-07-21T11:17:31;26.40;99.60
39503;DHT22;26970;49.900;10.774;2022-07-21T11:19:56;26.70;99.70
39503;DHT22;26970;49.900;10.774;2022-07-21T11:22:28;27.10;97.20
39503;DHT22;26970;49.900;10.774;2022-07-21T11:25:07;27.30;96.50
39503;DHT22;26970;49.900;10.774;2022-07-21T11:27:35;27.20;96.10
39503;DHT22;26970;49.900;10.774;2022-07-21T11:30:04;27.10;96.20
39503;DHT22;26970;49.900;10.774;2022-07-21T11:32:30;27.10;95.70
39503;DHT22;26970;49.900;10.774;2022-07-21T11:35:01;27.30;94.70
39503;DHT22;26970;49.900;10.774;2022-07-21T11:37:42;27.60;94.50
39503;DHT22;26970;49.900;10.774;2022-07-21T11:40:13;27.70;94.40
39503;DHT22;26970;49.900;10.774;2022-07-21T11:42:43;27.70;94.10
39503;DHT22;26970;49.900;10.774;2022-07-21T11:45:10;27.90;93.90
39503;DHT22;26970;49.900;10.774;2022-07-21T11:47:36;28.10;93.20
39503;DHT22;26970;49.900;10.774;2022-07-21T11:50:06;28.30;93.00
39503;DHT22;26970;49.900;10.774;2022-07-21T11:52:34;28.50;92.30
39503;DHT22;26970;49.900;10.774;2022-07-21T11:55:02;28.50;92.40
39503;DHT22;26970;49.900;10.774;2022-07-21T11:57:28;28.60;92.30
39503;DHT22;26970;49.900;10.774;2022-07-21T11:59:56;28.70;92.20
39503;DHT22;26970;49.900;10.774;2022-07-21T12:02:27;28.70;92.10
39503;DHT22;26970;49.900;10.774;2022-07-21T12:04:57;28.50;92.30
39503;DHT22;26970;49.900;10.774;2022-07-21T12:07:33;28.40;92.30
39503;DHT22;26970;49.900;10.774;2022-07-21T12:12:48;28.20;92.40
39503;DHT22;26970;49.900;10.774;2022-07-21T12:15:16;28.50;92.50
39503;DHT22;26970;49.900;10.774;2022-07-21T12:17:48;28.70;91.80
39503;DHT22;26970;49.900;10.774;2022-07-21T12:20:15;28.80;92.10
39503;DHT22;26970;49.900;10.774;2022-07-21T12:22:48;28.80;90.90
39503;DHT22;26970;49.900;10.774;2022-07-21T12:25:16;28.90;90.80
39503;DHT22;26970;49.900;10.774;2022-07-21T12:27:44;29.00;90.50
39503;DHT22;26970;49.900;10.774;2022-07-21T12:30:30;28.70;91.00
39503;DHT22;26970;49.900;10.774;2022-07-21T12:33:05;28.30;91.50
39503;DHT22;26970;49.900;10.774;2022-07-21T12:35:32;28.20;91.50
39503;DHT22;26970;49.900;10.774;2022-07-21T12:38:17;28.30;91.80
39503;DHT22;26970;49.900;10.774;2022-07-21T12:40:49;28.60;91.70
39503;DHT22;26970;49.900;10.774;2022-07-21T12:43:19;28.60;91.50
39503;DHT22;26970;49.900;10.774;2022-07-21T12:46:28;28.80;91.20
39503;DHT22;26970;49.900;10.774;2022-07-21T12:48:35;28.90;91.00
39503;DHT22;26970;49.900;10.774;2022-07-21T12:51:22;28.90;89.10
39503;DHT22;26970;49.900;10.774;2022-07-21T12:53:51;29.10;89.10
39503;DHT22;26970;49.900;10.774;2022-07-21T12:56:28;29.10;90.00
39503;DHT22;26970;49.900;10.774;2022-07-21T12:58:56;29.20;89.10
39503;DHT22;26970;49.900;10.774;2022-07-21T13:01:23;29.50;85.70
39503;DHT22;26970;49.900;10.774;2022-07-21T13:03:49;29.50;84.40
39503;DHT22;26970;49.900;10.774;2022-07-21T13:06:15;29.70;85.10
39503;DHT22;26970;49.900;10.774;2022-07-21T13:08:43;29.70;85.30
39503;DHT22;26970;49.900;10.774;2022-07-21T13:11:11;30.00;85.90
39503;DHT22;26970;49.900;10.774;2022-07-21T13:13:37;29.50;85.20
39503;DHT22;26970;49.900;10.774;2022-07-21T13:16:03;28.80;86.50
39503;DHT22;26970;49.900;10.774;2022-07-21T13:18:29;28.70;87.70
39503;DHT22;26970;49.900;10.774;2022-07-21T13:20:54;28.50;88.60
39503;DHT22;26970;49.900;10.774;2022-07-21T13:23:20;28.70;88.90
39503;DHT22;26970;49.900;10.774;2022-07-21T13:25:46;28.80;88.30
39503;DHT22;26970;49.900;10.774;2022-07-21T13:28:14;29.10;87.70
39503;DHT22;26970;49.900;10.774;2022-07-21T13:30:40;29.20;87.20
39503;DHT22;26970;49.900;10.774;2022-07-21T13:33:05;29.40;87.00
39503;DHT22;26970;49.900;10.774;2022-07-21T13:35:31;29.70;86.90
39503;DHT22;26970;49.900;10.774;2022-07-21T13:37:57;29.60;86.00
39503;DHT22;26970;49.900;10.774;2022-07-21T13:40:23;29.10;85.60
39503;DHT22;26970;49.900;10.774;2022-07-21T13:42:50;28.70;85.30
39503;DHT22;26970;49.900;10.774;2022-07-21T13:45:15;28.60;85.30
39503;DHT22;26970;49.900;10.774;2022-07-21T13:47:42;28.50;84.20
39503;DHT22;26970;49.900;10.774;2022-07-21T13:50:08;28.40;84.70
39503;DHT22;26970;49.900;10.774;2022-07-21T13:52:34;28.50;84.70
39503;DHT22;26970;49.900;10.774;2022-07-21T13:55:00;28.70;84.40
39503;DHT22;26970;49.900;10.774;2022-07-21T13:57:26;28.80;83.20
39503;DHT22;26970;49.900;10.774;2022-07-21T13:59:52;28.70;82.70
39503;DHT22;26970;49.900;10.774;2022-07-21T14:02:18;28.90;82.70
39503;DHT22;26970;49.900;10.774;2022-07-21T14:04:43;29.00;82.50
39503;DHT22;26970;49.900;10.774;2022-07-21T14:07:10;29.20;82.70
39503;DHT22;26970;49.900;10.774;2022-07-21T14:09:39;29.50;81.80
39503;DHT22;26970;49.900;10.774;2022-07-21T14:12:05;29.20;81.60
39503;DHT22;26970;49.900;10.774;2022-07-21T14:14:30;28.80;81.70
39503;DHT22;26970;49.900;10.774;2022-07-21T14:16:56;28.90;82.10
39503;DHT22;26970;49.900;10.774;2022-07-21T14:19:22;29.40;81.70
39503;DHT22;26970;49.900;10.774;2022-07-21T14:21:48;29.30;81.10
39503;DHT22;26970;49.900;10.774;2022-07-21T14:24:14;29.30;80.60
39503;DHT22;26970;49.900;10.774;2022-07-21T14:26:58;28.80;81.10
39503;DHT22;26970;49.900;10.774;2022-07-21T14:29:24;28.70;81.90
39503;DHT22;26970;49.900;10.774;2022-07-21T14:31:49;29.00;82.10
39503;DHT22;26970;49.900;10.774;2022-07-21T14:34:18;29.20;79.70
39503;DHT22;26970;49.900;10.774;2022-07-21T14:36:43;29.10;79.30
39503;DHT22;26970;49.900;10.774;2022-07-21T14:39:09;28.80;79.80
39503;DHT22;26970;49.900;10.774;2022-07-21T14:41:35;28.30;80.80
39503;DHT22;26970;49.900;10.774;2022-07-21T14:44:00;28.10;81.30
39503;DHT22;26970;49.900;10.774;2022-07-21T14:46:26;28.30;82.20
39503;DHT22;26970;49.900;10.774;2022-07-21T14:48:51;28.50;81.80
39503;DHT22;26970;49.900;10.774;2022-07-21T14:51:17;28.50;82.40
39503;DHT22;26970;49.900;10.774;2022-07-21T14:53:43;28.50;81.80
39503;DHT22;26970;49.900;10.774;2022-07-21T14:56:09;28.50;81.80
39503;DHT22;26970;49.900;10.774;2022-07-21T14:58:34;28.60;81.70
39503;DHT22;26970;49.900;10.774;2022-07-21T15:01:00;28.60;81.80
39503;DHT22;26970;49.900;10.774;2022-07-21T15:03:25;28.50;82.60
39503;DHT22;26970;49.900;10.774;2022-07-21T15:05:52;28.50;83.40
39503;DHT22;26970;49.900;10.774;2022-07-21T15:08:17;28.50;81.80
39503;DHT22;26970;49.900;10.774;2022-07-21T15:10:43;28.40;82.30
39503;DHT22;26970;49.900;10.774;2022-07-21T15:13:09;28.30;81.10
39503;DHT22;26970;49.900;10.774;2022-07-21T15:15:35;28.40;82.30
39503;DHT22;26970;49.900;10.774;2022-07-21T15:18:02;28.50;82.30
39503;DHT22;26970;49.900;10.774;2022-07-21T15:20:28;28.60;82.60
39503;DHT22;26970;49.900;10.774;2022-07-21T15:22:53;28.50;81.60
39503;DHT22;26970;49.900;10.774;2022-07-21T15:25:19;28.50;81.70
39503;DHT22;26970;49.900;10.774;2022-07-21T15:27:44;28.30;81.60
39503;DHT22;26970;49.900;10.774;2022-07-21T15:30:13;28.30;82.30
39503;DHT22;26970;49.900;10.774;2022-07-21T15:32:39;28.30;82.80
39503;DHT22;26970;49.900;10.774;2022-07-21T15:35:05;28.20;82.90
39503;DHT22;26970;49.900;10.774;2022-07-21T15:37:31;28.20;83.10
39503;DHT22;26970;49.900;10.774;2022-07-21T15:39:56;28.30;83.70